Time;durP1;ratioP1;P1;durP2;ratioP2;P2;SDS_P1;SDS_P2;PMS_P1;PMS_P2;Temp;Humidity;BMP_temperature;BMP_pressure;BME280_temperature;BME280_humidity;BME280_pressure;Samples;Min_cycle;Max_cycle;Signal;HPM_P1;HPM_P2
2021/04/23 00:02:05;;;;;;;15.10;11.40;;;;;;;9.25;73.93;100886.23;1686472;84;21265;-60
2021/04/23 00:05:11;;;;;;;15.65;11.60;;;;;;;9.22;74.21;100884.69;1707060;83;21395;-59
2021/04/23 00:08:17;;;;;;;19.65;11.60;;;;;;;9.21;74.42;100883.48;1707062;84;21375;-59
2021/04/23 00:11:22;;;;;;;20.60;11.97;;;;;;;9.19;74.43;100878.67;1707015;84;21362;-60
2021/04/23 00:14:31;;;;;;;19.00;11.65;;;;;;;9.15;74.51;100872.65;1707054;83;21728;-59
2021/04/23 00:17:37;;;;;;;15.75;12.03;;;;;;;9.10;74.60;100875.02;1706155;83;21383;-59
2021/04/23 00:20:42;;;;;;;15.80;11.85;;;;;;;9.07;74.77;100878.02;1706961;83;21350;-59
2021/04/23 00:23:49;;;;;;;19.30;13.10;;;;;;;9.02;74.97;100873.56;1707138;84;21371;-59
2021/04/23 00:26:54;;;;;;;17.45;12.35;;;;;;;9.00;75.25;100874.21;1707085;84;21583;-60
2021/04/23 00:30:01;;;;;;;18.57;13.22;;;;;;;8.97;75.50;100871.26;1707046;83;21438;-60
2021/04/23 00:33:07;;;;;;;18.40;13.55;;;;;;;8.94;75.61;100874.30;1707175;84;21450;-60
2021/04/23 00:36:13;;;;;;;20.30;13.25;;;;;;;8.92;75.73;100875.48;1707164;83;21370;-59
2021/04/23 00:39:18;;;;;;;16.65;13.05;;;;;;;8.93;75.82;100878.55;1707093;83;21394;-60
2021/04/23 00:42:23;;;;;;;22.82;15.20;;;;;;;8.93;75.85;100881.28;1707086;84;21410;-59
2021/04/23 00:45:31;;;;;;;19.87;14.20;;;;;;;8.90;75.89;100868.81;1707139;83;21370;-59
2021/04/23 00:48:40;;;;;;;20.57;14.53;;;;;;;8.90;75.99;100868.81;1707089;84;21872;-60
2021/04/23 00:52:02;;;;;;;17.90;13.25;;;;;;;8.89;75.96;100875.30;1707143;84;21863;-61
2021/04/23 00:55:07;;;;;;;19.37;14.70;;;;;;;8.89;75.98;100871.20;1707265;83;21759;-60
2021/04/23 00:58:23;;;;;;;24.50;13.98;;;;;;;8.87;76.06;100871.85;1706849;84;21280;-59
2021/04/23 01:01:34;;;;;;;22.77;15.58;;;;;;;8.86;76.03;100870.64;1707061;84;21880;-59
2021/04/23 01:04:40;;;;;;;22.77;15.13;;;;;;;8.84;75.92;100859.00;1707165;83;21383;-59
2021/04/23 01:07:58;;;;;;;22.20;15.03;;;;;;;8.80;75.84;100863.91;1707104;84;21984;-60
2021/04/23 01:11:08;;;;;;;22.73;14.78;;;;;;;8.76;75.85;100858.91;1707088;83;21359;-60
2021/04/23 01:14:14;;;;;;;24.63;16.27;;;;;;;8.71;75.88;100848.95;1707112;83;21398;-60
2021/04/23 01:17:20;;;;;;;21.30;15.83;;;;;;;8.67;75.95;100849.75;1707182;84;21446;-59
2021/04/23 01:20:26;;;;;;;24.82;16.37;;;;;;;8.64;75.94;100852.80;1705830;81;21221;-59
2021/04/23 01:23:31;;;;;;;24.63;16.15;;;;;;;8.61;76.06;100844.08;1705013;84;21702;-59
2021/04/23 01:26:46;;;;;;;21.00;16.45;;;;;;;8.58;76.12;100847.95;1704836;84;21272;-60
2021/04/23 01:29:52;;;;;;;22.40;15.72;;;;;;;8.55;76.24;100844.66;1704866;83;21247;-59
2021/04/23 01:32:58;;;;;;;19.50;15.68;;;;;;;8.53;76.32;100841.24;1704738;84;21410;-59
2021/04/23 01:36:02;;;;;;;21.48;16.30;;;;;;;8.48;76.55;100835.38;1704907;83;21931;-59
2021/04/23 01:39:08;;;;;;;25.00;16.93;;;;;;;8.46;76.73;100834.17;1704861;83;21200;-59
2021/04/23 01:42:14;;;;;;;22.42;16.95;;;;;;;8.46;76.89;100831.94;1704872;84;21208;-60
2021/04/23 01:45:21;;;;;;;25.45;17.00;;;;;;;8.42;76.92;100826.44;1704764;83;21284;-59
2021/04/23 01:48:27;;;;;;;22.13;16.62;;;;;;;8.40;77.07;100827.09;1704832;84;21367;-60
2021/04/23 01:51:34;;;;;;;22.17;15.93;;;;;;;8.38;77.20;100829.97;1704765;84;21197;-59
2021/04/23 01:54:41;;;;;;;24.47;16.42;;;;;;;8.36;77.30;100818.84;1704825;83;21252;-59
2021/04/23 01:57:47;;;;;;;23.47;17.30;;;;;;;8.35;77.54;100821.22;1704890;84;21264;-59
2021/04/23 02:00:55;;;;;;;24.27;18.20;;;;;;;8.34;77.71;100816.26;1704821;83;21316;-58
2021/04/23 02:04:01;;;;;;;24.00;16.48;;;;;;;8.35;77.75;100821.22;1704755;83;21237;-59
2021/04/23 02:07:09;;;;;;;26.05;17.55;;;;;;;8.32;77.72;100818.80;1704722;84;21189;-60
2021/04/23 02:10:18;;;;;;;25.55;17.40;;;;;;;8.28;77.78;100810.55;1704730;83;21232;-59
2021/04/23 02:13:29;;;;;;;28.27;19.65;;;;;;;8.23;77.91;100812.36;1704795;84;21770;-59
2021/04/23 02:16:35;;;;;;;25.05;18.35;;;;;;;8.17;78.08;100808.84;1704809;84;21308;-60
2021/04/23 02:19:41;;;;;;;25.30;17.32;;;;;;;8.14;78.33;100813.24;1705202;82;21239;-60
2021/04/23 02:22:49;;;;;;;26.73;19.75;;;;;;;8.13;78.49;100802.48;1772241;81;21330;-61
2021/04/23 02:25:55;;;;;;;28.57;19.67;;;;;;;8.13;78.63;100806.58;1772559;80;21617;-60
2021/04/23 02:29:02;;;;;;;25.50;18.57;;;;;;;8.13;78.66;100803.85;1772677;80;21228;-61
2021/04/23 02:32:07;;;;;;;28.30;19.67;;;;;;;8.13;78.75;100802.48;1771766;81;21216;-61
2021/04/23 02:35:18;;;;;;;33.83;20.45;;;;;;;8.13;78.95;100812.03;1772379;80;21421;-59
2021/04/23 02:38:23;;;;;;;32.05;20.88;;;;;;;8.14;79.10;100811.01;1772529;81;21354;-60
2021/04/23 02:41:29;;;;;;;33.02;21.17;;;;;;;8.13;79.11;100807.94;1772217;81;21847;-58
2021/04/23 02:44:34;;;;;;;30.62;21.17;;;;;;;8.10;79.08;100805.02;1772402;80;21229;-59
2021/04/23 02:47:40;;;;;;;30.97;21.55;;;;;;;8.07;79.12;100814.00;1772097;81;21201;-61
2021/04/23 02:50:49;;;;;;;30.68;22.35;;;;;;;8.02;79.23;100825.84;1771985;80;21367;-60
2021/04/23 02:53:55;;;;;;;32.60;22.70;;;;;;;7.95;79.41;100822.86;1772541;81;21354;-60
2021/04/23 02:57:00;;;;;;;34.00;22.40;;;;;;;7.91;79.60;100819.22;1772575;81;21248;-59
2021/04/23 03:00:06;;;;;;;36.93;23.12;;;;;;;7.87;79.83;100820.50;1772495;81;21354;-59
2021/04/23 03:03:15;;;;;;;32.75;22.00;;;;;;;7.83;80.04;100820.45;1772468;81;21338;-61
2021/04/23 03:06:20;;;;;;;33.28;22.35;;;;;;;7.85;80.17;100818.45;1771778;81;21352;-60
2021/04/23 03:09:25;;;;;;;35.15;23.73;;;;;;;7.83;80.31;100810.42;1772379;80;21354;-61
2021/04/23 03:12:31;;;;;;;34.95;23.83;;;;;;;7.89;80.49;100821.22;1772351;81;21705;-61
2021/04/23 03:15:36;;;;;;;38.53;24.98;;;;;;;7.94;80.67;100820.28;1772184;80;21422;-61
2021/04/23 03:18:44;;;;;;;37.75;24.50;;;;;;;8.02;80.71;100833.54;1772240;81;21181;-59
2021/04/23 03:21:50;;;;;;;38.23;26.12;;;;;;;8.09;80.70;100833.27;1770949;81;21362;-60
2021/04/23 03:24:55;;;;;;;38.23;25.77;;;;;;;8.15;80.66;100826.38;1772544;80;21212;-60
2021/04/23 03:28:01;;;;;;;35.88;25.77;;;;;;;8.18;80.61;100821.47;1772511;81;21393;-60
2021/04/23 03:31:06;;;;;;;46.37;29.85;;;;;;;8.20;80.58;100826.27;1772549;80;21385;-61
2021/04/23 03:34:11;;;;;;;47.85;30.23;;;;;;;8.23;80.59;100826.00;1772419;81;21341;-61
2021/04/23 03:37:17;;;;;;;46.73;31.25;;;;;;;8.24;80.65;100826.38;1772448;81;21326;-61
2021/04/23 03:40:25;;;;;;;55.15;34.92;;;;;;;8.27;80.69;100830.66;1772536;80;21220;-61
2021/04/23 03:43:31;;;;;;;53.87;35.90;;;;;;;8.32;80.68;100829.70;1772558;81;21354;-62
2021/04/23 03:46:37;;;;;;;57.70;38.28;;;;;;;8.40;80.65;100824.36;1772573;81;21342;-61
2021/04/23 03:49:43;;;;;;;52.15;35.28;;;;;;;8.52;80.56;100828.09;1800877;79;21849;-61
2021/04/23 03:52:51;;;;;;;50.15;34.15;;;;;;;8.64;80.44;100824.66;1804178;79;21407;-61
2021/04/23 03:56:01;;;;;;;53.85;35.13;;;;;;;8.79;80.27;100818.52;1803755;79;21403;-60
2021/04/23 03:59:07;;;;;;;48.20;33.23;;;;;;;8.92;79.92;100821.75;1803539;79;21209;-61
2021/04/23 04:02:14;;;;;;;46.75;32.05;;;;;;;9.01;79.74;100815.34;1804156;79;21366;-60
2021/04/23 04:05:21;;;;;;;48.42;32.17;;;;;;;9.15;79.52;100814.45;1803820;79;21427;-60
2021/04/23 04:08:30;;;;;;;41.00;30.23;;;;;;;9.23;79.28;100813.17;1804006;79;21386;-61
2021/04/23 04:11:36;;;;;;;48.63;31.87;;;;;;;9.36;79.20;100813.11;1804069;79;21189;-61
2021/04/23 04:14:43;;;;;;;42.27;30.50;;;;;;;9.47;78.83;100808.77;1804123;79;21375;-61
2021/04/23 04:17:51;;;;;;;42.85;30.65;;;;;;;9.55;78.52;100806.09;1803678;79;21716;-62
2021/04/23 04:20:58;;;;;;;42.98;30.80;;;;;;;9.59;78.27;100810.24;1804136;79;21414;-61
2021/04/23 04:24:03;;;;;;;48.10;31.30;;;;;;;9.65;78.23;100809.59;1803001;79;21347;-61
2021/04/23 04:27:08;;;;;;;41.55;30.50;;;;;;;9.76;78.08;100805.23;1803740;79;21733;-61
2021/04/23 04:30:16;;;;;;;40.60;29.05;;;;;;;9.85;77.92;100803.39;1803670;79;21327;-61
2021/04/23 04:33:22;;;;;;;43.75;31.23;;;;;;;9.91;77.53;100801.41;1804159;79;21343;-61
2021/04/23 04:36:27;;;;;;;48.63;31.48;;;;;;;9.89;77.32;100804.30;1804154;79;21335;-61
2021/04/23 04:39:33;;;;;;;42.27;31.00;;;;;;;9.91;77.28;100815.08;1804027;79;21432;-61
2021/04/23 04:42:37;;;;;;;49.45;32.08;;;;;;;9.94;77.28;100821.06;1803849;79;21327;-60
2021/04/23 04:45:42;;;;;;;44.42;32.20;;;;;;;9.92;77.21;100825.86;1804046;79;21781;-61
2021/04/23 04:48:51;;;;;;;44.48;32.00;;;;;;;9.91;77.19;100824.66;1803053;79;21201;-62
2021/04/23 04:52:00;;;;;;;48.95;32.10;;;;;;;9.88;77.20;100821.71;1785320;79;21273;-63
2021/04/23 04:55:14;;;;;;;45.65;30.60;;;;;;;9.86;77.32;100819.64;1772114;80;21259;-64
2021/04/23 04:58:22;;;;;;;42.62;30.35;;;;;;;9.93;77.51;100823.45;1772062;81;21346;-62
2021/04/23 05:01:28;;;;;;;46.75;32.30;;;;;;;10.02;77.56;100821.11;1770614;81;21216;-61
2021/04/23 05:04:37;;;;;;;44.88;31.40;;;;;;;10.03;77.48;100821.48;1771544;80;21356;-61
2021/04/23 05:07:46;;;;;;;41.80;28.67;;;;;;;10.05;77.50;100831.73;1771767;81;21208;-61
2021/04/23 05:10:50;;;;;;;45.55;31.07;;;;;;;10.09;77.56;100819.99;1772334;80;21389;-61
2021/04/23 05:13:58;;;;;;;44.60;28.98;;;;;;;10.11;77.58;100813.86;1771860;81;21272;-61
2021/04/23 05:17:02;;;;;;;43.08;30.32;;;;;;;10.17;77.60;100822.28;1772282;81;22260;-59
2021/04/23 05:20:17;;;;;;;46.40;30.35;;;;;;;10.20;77.31;100821.08;1771756;80;21358;-60
2021/04/23 05:23:24;;;;;;;42.93;28.70;;;;;;;10.19;77.23;100816.14;1770059;80;21240;-61
2021/04/23 05:26:30;;;;;;;46.98;30.55;;;;;;;10.21;77.23;100815.45;1771787;79;21348;-60
2021/04/23 05:29:38;;;;;;;38.67;27.35;;;;;;;10.25;77.24;100819.59;1768029;80;21213;-59
2021/04/23 05:32:46;;;;;;;41.80;28.30;;;;;;;10.35;77.30;100812.09;1769750;80;21351;-60
2021/04/23 05:35:54;;;;;;;38.73;28.62;;;;;;;10.48;77.32;100806.19;1769306;80;21562;-59
2021/04/23 05:39:02;;;;;;;42.55;29.20;;;;;;;10.62;77.29;100804.19;1769457;80;21193;-59
2021/04/23 05:42:06;;;;;;;40.38;28.40;;;;;;;10.80;76.99;100802.16;1769188;80;21987;-59
2021/04/23 05:45:16;;;;;;;34.80;26.57;;;;;;;10.98;76.48;100804.78;1769291;80;21935;-59
2021/04/23 05:48:23;;;;;;;35.15;26.97;;;;;;;11.16;76.16;100797.28;1769157;80;21335;-59
2021/04/23 05:51:29;;;;;;;38.13;28.52;;;;;;;11.30;75.38;100798.84;1768395;80;21344;-59
2021/04/23 05:54:35;;;;;;;43.05;27.77;;;;;;;11.42;74.74;100787.88;1768276;80;21220;-59
2021/04/23 05:57:40;;;;;;;42.78;26.52;;;;;;;11.60;74.00;100798.16;1768420;80;21776;-59
2021/04/23 06:00:46;;;;;;;41.25;28.10;;;;;;;11.69;73.20;100803.14;1768291;81;21217;-59
2021/04/23 06:03:51;;;;;;;41.23;25.65;;;;;;;11.70;72.78;100802.13;1769933;80;21254;-59
2021/04/23 06:06:57;;;;;;;37.75;26.48;;;;;;;11.77;72.62;100798.52;1770770;79;21209;-59
2021/04/23 06:10:03;;;;;;;37.42;25.08;;;;;;;11.94;72.33;100797.95;1771327;80;21259;-60
2021/04/23 06:13:07;;;;;;;36.65;24.43;;;;;;;12.08;71.71;100795.03;1772030;81;21338;-61
2021/04/23 06:16:15;;;;;;;32.83;23.38;;;;;;;12.30;70.97;100786.91;1773270;80;21439;-55
2021/04/23 06:19:20;;;;;;;32.53;24.65;;;;;;;12.46;69.93;100787.34;1771382;81;21801;-60
2021/04/23 06:22:28;;;;;;;34.63;22.93;;;;;;;12.66;69.41;100788.11;1772338;81;21193;-59
2021/04/23 06:25:34;;;;;;;27.85;21.68;;;;;;;12.94;69.09;100788.45;1765326;80;21613;-59
2021/04/23 06:28:44;;;;;;;30.12;20.97;;;;;;;13.31;68.62;100789.45;1761963;81;21347;-59
2021/04/23 06:31:51;;;;;;;33.10;21.30;;;;;;;13.72;68.12;100793.21;1761557;81;21485;-59
2021/04/23 06:34:57;;;;;;;30.90;20.75;;;;;;;14.04;66.45;100797.03;1761668;81;21340;-60
2021/04/23 06:38:02;;;;;;;29.55;21.27;;;;;;;14.23;65.77;100789.59;1757730;81;21835;-59
2021/04/23 06:41:15;;;;;;;28.12;20.85;;;;;;;14.36;64.99;100793.95;1736651;82;21457;-59
2021/04/23 06:44:23;;;;;;;24.63;18.87;;;;;;;14.37;64.29;100800.65;1740210;81;21256;-60
2021/04/23 06:47:30;;;;;;;28.02;20.12;;;;;;;14.31;63.74;100793.16;1759601;81;21356;-60
2021/04/23 06:50:37;;;;;;;29.05;19.75;;;;;;;14.20;63.68;100834.03;1760668;81;22178;-60
2021/04/23 06:53:44;;;;;;;24.45;19.92;;;;;;;14.12;63.97;100817.08;1759681;81;21228;-60
2021/04/23 06:56:49;;;;;;;26.30;20.62;;;;;;;14.16;63.72;100814.27;1737626;81;21263;-60
2021/04/23 06:59:54;;;;;;;25.88;20.02;;;;;;;14.20;63.38;100822.50;1759191;81;21232;-60
2021/04/23 07:03:02;;;;;;;32.75;21.05;;;;;;;14.21;63.25;100827.47;1743146;81;21209;-60
2021/04/23 07:06:09;;;;;;;27.90;21.23;;;;;;;14.26;63.41;100815.41;1735289;82;21282;-59
2021/04/23 07:09:18;;;;;;;31.95;21.52;;;;;;;14.34;63.17;100823.58;1763085;81;21181;-58
2021/04/23 07:12:24;;;;;;;31.73;23.07;;;;;;;14.32;62.94;100810.51;1766416;81;21632;-59
2021/04/23 07:15:33;;;;;;;39.05;29.45;;;;;;;14.32;62.49;100816.02;1756376;81;21685;-59
2021/04/23 07:18:39;;;;;;;44.93;33.18;;;;;;;14.41;62.65;100814.36;1733177;82;21422;-59
2021/04/23 07:21:48;;;;;;;37.73;28.87;;;;;;;14.60;62.36;100813.78;1733800;82;21331;-60
2021/04/23 07:24:55;;;;;;;41.13;30.88;;;;;;;14.83;61.89;100810.40;1755592;80;21813;-59
2021/04/23 07:28:05;;;;;;;30.70;23.75;;;;;;;15.11;61.52;100824.29;1744416;81;21678;-60
2021/04/23 07:31:11;;;;;;;38.73;23.15;;;;;;;15.30;60.95;100812.63;1739752;81;21729;-59
2021/04/23 07:34:19;;;;;;;30.75;22.40;;;;;;;15.34;60.64;100816.72;1745837;81;21319;-60
2021/04/23 07:37:26;;;;;;;30.57;22.25;;;;;;;15.33;60.52;100816.91;1741860;81;21353;-59
2021/04/23 07:40:33;;;;;;;32.13;23.52;;;;;;;15.39;60.71;100814.27;1759519;81;21228;-60
2021/04/23 07:43:40;;;;;;;89.13;48.52;;;;;;;15.61;60.68;100822.88;1759900;81;21259;-59
2021/04/23 07:46:46;;;;;;;36.90;24.67;;;;;;;15.77;60.19;100812.94;1759811;81;21193;-60
2021/04/23 07:49:51;;;;;;;51.28;31.42;;;;;;;15.82;59.98;100818.73;1759654;81;21201;-59
2021/04/23 07:52:59;;;;;;;32.50;23.38;;;;;;;15.82;59.91;100817.34;1759607;81;21844;-60
2021/04/23 07:56:04;;;;;;;31.40;20.45;;;;;;;15.91;59.69;100813.89;1735069;82;21370;-60
2021/04/23 07:59:11;;;;;;;53.25;31.05;;;;;;;16.08;60.06;100827.21;1735955;82;21370;-60
2021/04/23 08:02:19;;;;;;;34.88;23.27;;;;;;;16.14;59.25;100818.66;1735803;82;21312;-59
2021/04/23 08:05:27;;;;;;;31.25;19.60;;;;;;;16.11;59.08;100821.28;1757245;81;21348;-60
2021/04/23 08:08:36;;;;;;;26.73;20.25;;;;;;;15.97;59.59;100829.14;1740289;81;21346;-58
2021/04/23 08:11:42;;;;;;;30.70;17.15;;;;;;;15.68;60.62;100843.09;1746875;81;21212;-54
2021/04/23 08:14:50;;;;;;;26.35;17.62;;;;;;;15.32;61.99;100836.74;1742102;81;21276;-54
2021/04/23 08:17:59;;;;;;;34.18;22.22;;;;;;;14.94;62.82;100842.12;1729209;81;21273;-56
2021/04/23 08:21:06;;;;;;;26.57;16.15;;;;;;;14.70;63.86;100831.41;1720790;82;21246;-55
2021/04/23 08:24:14;;;;;;;18.23;14.95;;;;;;;14.54;64.38;100823.36;1745654;81;21189;-55
2021/04/23 08:27:21;;;;;;;17.77;12.43;;;;;;;14.46;64.82;100808.30;1752693;80;21322;-55
2021/04/23 08:30:29;;;;;;;15.28;11.05;;;;;;;14.44;64.62;100811.77;1771499;80;21197;-56
2021/04/23 08:33:35;;;;;;;17.10;11.73;;;;;;;14.40;64.56;100798.02;1746034;81;21225;-55
2021/04/23 08:36:43;;;;;;;13.00;11.48;;;;;;;14.34;64.44;100790.53;1700304;83;21237;-54
2021/04/23 08:39:51;;;;;;;20.92;13.10;;;;;;;14.27;64.34;100790.97;1713165;83;21221;-56
2021/04/23 08:42:59;;;;;;;16.25;12.23;;;;;;;14.19;64.83;100798.75;1712074;82;21386;-55
2021/04/23 08:46:05;;;;;;;24.37;16.00;;;;;;;14.12;65.57;100804.69;1728922;82;21785;-58
2021/04/23 08:49:16;;;;;;;41.73;24.25;;;;;;;13.99;66.38;100814.62;1728245;82;21299;-54
2021/04/23 08:52:21;;;;;;;69.62;34.45;;;;;;;13.91;67.54;100816.08;1728669;83;21280;-54
2021/04/23 08:55:31;;;;;;;38.60;22.05;;;;;;;13.84;68.23;100807.73;1728171;82;21213;-55
2021/04/23 08:58:40;;;;;;;22.00;14.75;;;;;;;13.77;68.76;100786.63;1728973;83;21280;-56
2021/04/23 09:01:45;;;;;;;17.20;13.68;;;;;;;13.73;69.53;100761.38;1729318;83;21252;-55
2021/04/23 09:04:50;;;;;;;15.78;13.13;;;;;;;13.74;70.34;100751.23;1717283;83;21782;-56
2021/04/23 09:08:11;;;;;;;15.40;12.10;;;;;;;13.75;70.81;100754.34;1712109;83;21218;-56
2021/04/23 09:11:26;;;;;;;14.30;11.60;;;;;;;13.74;71.03;100747.11;1708124;83;21342;-57
2021/04/23 09:14:33;;;;;;;15.53;11.80;;;;;;;13.78;71.10;100742.41;1761884;80;21379;-56
2021/04/23 09:17:38;;;;;;;15.90;13.03;;;;;;;13.83;71.04;100752.34;1756627;80;21301;-56
2021/04/23 09:20:46;;;;;;;12.20;10.88;;;;;;;13.86;71.40;100740.12;1770257;80;21225;-57
2021/04/23 09:23:59;;;;;;;15.50;11.28;;;;;;;13.93;71.49;100741.06;1770807;80;21181;-57
2021/04/23 09:27:09;;;;;;;13.65;10.63;;;;;;;13.94;71.35;100737.28;1770860;80;21205;-57
2021/04/23 09:30:17;;;;;;;14.03;10.75;;;;;;;13.96;70.99;100747.05;1735356;82;21274;-58
2021/04/23 09:33:31;;;;;;;14.13;11.03;;;;;;;13.96;71.16;100762.70;1699661;84;21442;-56
2021/04/23 09:36:48;;;;;;;64.07;31.05;;;;;;;13.92;70.43;100772.39;1735283;82;21593;-58
2021/04/23 09:39:54;;;;;;;26.55;16.67;;;;;;;13.90;71.04;100776.71;1699433;84;21236;-56
2021/04/23 09:43:03;;;;;;;13.60;10.78;;;;;;;14.03;71.57;100771.93;1740750;81;21275;-56
2021/04/23 09:46:08;;;;;;;17.05;12.55;;;;;;;14.21;71.00;100765.52;1736896;82;21734;-58
2021/04/23 09:49:26;;;;;;;17.45;13.08;;;;;;;14.40;70.91;100757.57;1737660;82;21240;-55
2021/04/23 09:52:31;;;;;;;13.80;11.12;;;;;;;14.59;71.02;100768.52;1738674;82;21205;-57
2021/04/23 09:55:38;;;;;;;14.00;10.63;;;;;;;14.81;70.85;100762.00;1738131;82;21375;-57
2021/04/23 09:58:44;;;;;;;11.95;10.58;;;;;;;15.01;70.48;100752.08;1737913;82;21205;-56
2021/04/23 10:02:10;;;;;;;16.73;11.20;;;;;;;15.15;69.55;100748.41;1737754;82;21209;-56
2021/04/23 10:05:18;;;;;;;14.80;11.40;;;;;;;15.23;68.38;100751.55;1763920;80;21316;-57
2021/04/23 10:08:36;;;;;;;12.20;10.90;;;;;;;15.23;68.00;100741.90;1734725;82;21236;-57
2021/04/23 10:11:50;;;;;;;15.43;11.40;;;;;;;15.20;67.76;100736.27;1734672;82;21772;-56
2021/04/23 10:15:05;;;;;;;12.93;11.00;;;;;;;15.22;68.09;100734.69;1762366;80;21224;-56
2021/04/23 10:18:15;;;;;;;13.05;10.28;;;;;;;15.27;67.98;100728.89;1765211;81;21623;-55
2021/04/23 10:21:20;;;;;;;12.18;9.58;;;;;;;15.25;66.90;100716.36;1765045;81;21734;-55
2021/04/23 10:24:27;;;;;;;13.25;10.50;;;;;;;15.14;66.37;100710.00;1763364;81;21217;-56
2021/04/23 10:27:31;;;;;;;10.70;9.53;;;;;;;15.03;66.17;100703.11;1742804;81;21781;-60
2021/04/23 10:30:45;;;;;;;12.60;10.55;;;;;;;14.83;65.94;100700.66;1762129;80;21769;-59
2021/04/23 10:33:48;;;;;;;11.83;9.58;;;;;;;14.66;66.21;100697.81;1776346;80;21858;-62
2021/04/23 10:36:55;;;;;;;12.63;9.85;;;;;;;14.68;66.16;100688.84;1769729;80;21519;-60
2021/04/23 10:40:04;;;;;;;15.30;11.70;;;;;;;14.72;66.46;100688.77;1768338;80;21789;-56
2021/04/23 10:43:22;;;;;;;14.38;10.58;;;;;;;14.90;67.59;100694.70;1776816;80;21625;-56
2021/04/23 10:46:28;;;;;;;11.83;9.63;;;;;;;15.15;67.68;100683.59;1765130;80;21205;-57
2021/04/23 10:49:34;;;;;;;11.10;8.55;;;;;;;15.38;66.98;100679.25;1762086;80;21726;-57
2021/04/23 10:52:39;;;;;;;11.15;9.18;;;;;;;15.54;66.45;100687.27;1761419;80;21180;-55
2021/04/23 10:56:05;;;;;;;11.88;9.25;;;;;;;15.55;65.26;100686.20;1773513;79;21762;-55
2021/04/23 10:59:36;;;;;;;12.00;9.35;;;;;;;15.53;64.31;100676.75;1771754;80;21726;-55
2021/04/23 11:02:43;;;;;;;16.20;10.43;;;;;;;15.60;64.43;100667.14;1771914;80;21213;-56
2021/04/23 11:05:50;;;;;;;13.80;8.58;;;;;;;15.73;64.02;100675.52;1774310;79;21343;-55
2021/04/23 11:09:12;;;;;;;7.90;6.90;;;;;;;15.89;63.03;100678.80;1764317;79;21206;-56
2021/04/23 11:12:20;;;;;;;10.58;8.18;;;;;;;16.01;61.62;100673.05;1777082;80;21413;-56
2021/04/23 11:15:30;;;;;;;8.45;7.15;;;;;;;16.11;61.20;100670.75;1785900;79;21418;-55
2021/04/23 11:18:35;;;;;;;8.68;6.60;;;;;;;16.13;60.76;100668.64;1787649;80;21323;-55
2021/04/23 11:21:44;;;;;;;7.45;6.40;;;;;;;16.19;60.25;100671.09;1787845;80;21447;-55
2021/04/23 11:25:17;;;;;;;6.17;5.50;;;;;;;16.14;59.68;100682.77;1787911;79;21272;-55
2021/04/23 11:28:24;;;;;;;;;;;;;;;16.07;59.23;100681.03;1791068;80;21324;-56
2021/04/23 11:31:29;;;;;;;8.28;6.30;;;;;;;15.93;59.41;100674.59;1797135;79;20284;-55
2021/04/23 11:34:41;;;;;;;7.70;5.83;;;;;;;15.90;59.81;100671.37;1772998;79;21269;-55
2021/04/23 11:38:03;;;;;;;8.18;6.72;;;;;;;15.93;59.57;100674.59;1768299;80;21197;-55
2021/04/23 11:41:21;;;;;;;9.58;7.00;;;;;;;15.91;59.77;100667.55;1782643;79;21405;-56
2021/04/23 11:44:47;;;;;;;10.13;7.53;;;;;;;15.79;59.43;100658.97;1763611;81;21213;-56
2021/04/23 11:48:07;;;;;;;13.08;7.72;;;;;;;15.69;59.96;100670.06;1765508;81;21256;-56
2021/04/23 11:51:15;;;;;;;11.22;8.28;;;;;;;15.49;60.72;100662.17;1785132;79;21346;-58
2021/04/23 11:54:22;;;;;;;12.15;9.65;;;;;;;15.31;62.07;100671.42;1802823;79;21386;-57
2021/04/23 11:57:30;;;;;;;10.93;8.40;;;;;;;15.10;63.68;100669.55;1796570;79;21336;-57
2021/04/23 12:00:37;;;;;;;10.53;8.03;;;;;;;14.87;64.43;100661.47;1756177;79;21299;-57
2021/04/23 12:03:43;;;;;;;9.83;8.00;;;;;;;14.76;64.92;100652.34;1768735;80;21570;-57
2021/04/23 12:07:02;;;;;;;10.40;8.00;;;;;;;14.75;65.37;100645.66;1768232;80;21353;-56
2021/04/23 12:10:16;;;;;;;7.97;7.17;;;;;;;14.64;65.87;100647.03;1794848;79;21375;-57
2021/04/23 12:13:23;;;;;;;8.25;7.15;;;;;;;14.51;65.80;100640.51;1804408;79;21395;-56
2021/04/23 12:16:29;;;;;;;14.63;7.92;;;;;;;14.39;65.86;100631.92;1803833;79;21200;-56
2021/04/23 12:19:37;;;;;;;9.10;6.97;;;;;;;14.33;66.35;100634.59;1795699;79;21331;-57
2021/04/23 12:22:52;;;;;;;10.23;8.10;;;;;;;14.28;65.60;100633.80;1783110;79;21201;-56
2021/04/23 12:26:05;;;;;;;8.48;6.78;;;;;;;14.32;65.71;100634.24;1784167;79;21354;-57
2021/04/23 12:29:11;;;;;;;9.03;7.05;;;;;;;14.26;65.63;100622.63;1789740;79;21335;-57
2021/04/23 12:32:21;;;;;;;9.18;6.53;;;;;;;14.28;65.92;100620.03;1775287;79;21348;-57
2021/04/23 12:35:46;;;;;;;13.80;8.13;;;;;;;14.23;66.11;100618.34;1730981;81;21273;-55
2021/04/23 12:38:55;;;;;;;9.05;6.33;;;;;;;14.09;66.07;100627.50;1719333;81;21236;-56
2021/04/23 12:42:08;;;;;;;7.70;5.80;;;;;;;13.93;66.65;100624.09;1731711;82;21204;-57
2021/04/23 12:45:16;;;;;;;7.58;5.22;;;;;;;13.81;67.51;100636.63;1726810;81;21197;-57
2021/04/23 12:48:21;;;;;;;37.25;29.07;;;;;;;13.71;68.31;100640.19;1722327;82;21372;-57
2021/04/23 12:51:30;;;;;;;12.88;7.90;;;;;;;13.63;69.11;100640.27;1750958;81;21629;-58
2021/04/23 12:54:54;;;;;;;7.08;6.25;;;;;;;13.54;69.95;100627.98;1730429;81;21232;-54
2021/04/23 12:57:59;;;;;;;8.88;5.78;;;;;;;13.49;70.65;100620.81;1753926;81;21260;-54
2021/04/23 13:01:10;;;;;;;8.10;6.35;;;;;;;13.43;71.45;100605.08;1750639;81;21217;-55
2021/04/23 13:04:21;;;;;;;7.87;6.78;;;;;;;13.41;72.02;100597.53;1755271;81;21181;-56
2021/04/23 13:07:27;;;;;;;8.53;7.35;;;;;;;13.36;72.32;100583.52;1759159;81;21185;-57
2021/04/23 13:10:38;;;;;;;17.73;14.05;;;;;;;13.31;72.78;100572.23;1754232;81;21224;-57
2021/04/23 13:13:47;;;;;;;11.75;8.93;;;;;;;13.32;73.30;100594.55;1750921;81;21324;-57
2021/04/23 13:17:10;;;;;;;10.35;7.92;;;;;;;13.35;73.89;100596.08;1742413;81;21205;-61
2021/04/23 13:20:25;;;;;;;9.93;8.43;;;;;;;13.37;74.04;100580.23;1742074;81;21224;-60
2021/04/23 13:23:56;;;;;;;11.12;8.53;;;;;;;13.40;74.10;100574.34;1722491;82;21204;-59
2021/04/23 13:27:01;;;;;;;10.78;8.60;;;;;;;13.40;74.07;100569.70;1709235;83;21274;-60
2021/04/23 13:30:07;;;;;;;12.30;9.83;;;;;;;13.36;73.98;100564.27;1714880;82;21383;-59
2021/04/23 13:33:34;;;;;;;14.10;10.10;;;;;;;13.31;73.73;100561.23;1772716;79;21305;-60
2021/04/23 13:36:40;;;;;;;15.00;10.48;;;;;;;13.27;73.80;100559.88;1754265;80;21220;-60
2021/04/23 13:39:45;;;;;;;10.63;8.90;;;;;;;13.24;74.04;100558.89;1780186;79;21198;-60
2021/04/23 13:42:51;;;;;;;12.90;9.98;;;;;;;13.23;74.15;100573.69;1738359;80;21414;-60
2021/04/23 13:46:09;;;;;;;10.88;9.55;;;;;;;13.19;74.38;100571.52;1787844;80;21354;-60
2021/04/23 13:49:21;;;;;;;17.00;12.75;;;;;;;13.13;74.79;100578.59;1790995;80;21343;-59
2021/04/23 13:52:27;;;;;;;13.05;11.30;;;;;;;13.01;75.22;100577.36;1791314;79;21324;-60
2021/04/23 13:55:34;;;;;;;15.68;13.48;;;;;;;12.89;75.83;100576.59;1791005;80;21702;-63
2021/04/23 13:58:41;;;;;;;17.60;14.03;;;;;;;12.78;76.48;100583.36;1791386;80;21355;-59
2021/04/23 14:02:05;;;;;;;14.93;13.32;;;;;;;12.73;77.03;100586.34;1791335;80;21351;-60
2021/04/23 14:05:12;;;;;;;19.37;14.35;;;;;;;12.65;77.54;100587.28;1791156;80;21342;-60
2021/04/23 14:08:18;;;;;;;22.73;15.58;;;;;;;12.58;77.95;100595.04;1791254;80;21209;-59
2021/04/23 14:11:23;;;;;;;12.20;10.40;;;;;;;12.51;78.08;100610.02;1791406;80;21217;-60
2021/04/23 14:14:33;;;;;;;12.63;9.63;;;;;;;12.39;78.10;100606.00;1791303;80;21388;-59
2021/04/23 14:17:41;;;;;;;17.77;13.30;;;;;;;12.25;78.26;100604.03;1709205;84;21221;-58
2021/04/23 14:20:48;;;;;;;12.73;10.03;;;;;;;12.16;78.41;100605.64;1791083;80;21888;-59
2021/04/23 14:23:53;;;;;;;15.32;11.08;;;;;;;12.09;78.64;100605.50;1790057;80;21229;-59